createdAt,value
2019-01-05T00:02:56.622Z,17.10
2019-01-05T00:05:54.703Z,19.12
2019-01-05T00:08:41.858Z,16.95
2019-01-05T00:11:29.495Z,18.17
2019-01-05T00:14:24.184Z,18.42
2019-01-05T00:17:11.827Z,19.25
2019-01-05T00:20:15.622Z,19.98
2019-01-05T00:23:13.238Z,21.33
2019-01-05T00:26:02.447Z,19.27
2019-01-05T00:28:51.203Z,20.88
2019-01-05T00:31:45.506Z,19.65
2019-01-05T00:34:45.301Z,21.35
2019-01-05T00:37:35.047Z,21.50
2019-01-05T00:40:27.455Z,19.05
2019-01-05T00:43:23.349Z,20.08
2019-01-05T00:46:13.120Z,20.02
2019-01-05T00:49:05.068Z,20.68
2019-01-05T00:51:55.478Z,19.25
2019-01-05T00:54:40.410Z,19.65
2019-01-05T00:57:30.630Z,18.65
2019-01-05T01:00:20.301Z,15.25
2019-01-05T01:03:22.785Z,15.23
2019-01-05T01:06:16.739Z,14.85
2019-01-05T01:09:02.856Z,14.28
2019-01-05T01:12:10.006Z,13.68
2019-01-05T01:14:57.330Z,12.25
2019-01-05T01:17:53.383Z,12.80
2019-01-05T01:20:40.978Z,12.07
2019-01-05T01:23:29.522Z,11.78
2019-01-05T01:26:21.573Z,13.53
2019-01-05T01:29:25.986Z,10.70
2019-01-05T01:32:13.609Z,11.57
2019-01-05T01:35:02.525Z,10.15
2019-01-05T01:38:41.812Z,11.60
2019-01-05T01:41:45.233Z,10.80
2019-01-05T01:44:40.514Z,10.03
2019-01-05T01:47:30.583Z,11.83
2019-01-05T01:50:22.673Z,10.58
2019-01-05T01:53:17.836Z,9.08
2019-01-05T01:56:14.012Z,9.95
2019-01-05T01:59:03.592Z,8.90
2019-01-05T02:01:54.506Z,8.33
2019-01-05T02:04:55.900Z,9.33
2019-01-05T02:07:56.937Z,8.20
2019-01-05T02:10:47.609Z,7.17
2019-01-05T02:13:44.010Z,8.60
2019-01-05T02:16:37.541Z,8.73
2019-01-05T02:19:47.598Z,8.55
2019-01-05T02:23:09.874Z,9.45
2019-01-05T02:30:08.006Z,11.68
2019-01-05T02:33:38.379Z,10.00
2019-01-05T02:37:05.736Z,10.53
2019-01-05T02:40:28.770Z,12.43
2019-01-05T02:44:08.724Z,9.78
2019-01-05T02:48:06.237Z,10.30
2019-01-05T02:51:53.414Z,9.73
2019-01-05T02:55:34.916Z,9.18
2019-01-05T02:59:06.579Z,9.40
2019-01-05T03:02:47.131Z,9.35
2019-01-05T03:06:14.155Z,9.55
2019-01-05T03:09:46.167Z,9.00
2019-01-05T03:13:35.644Z,8.98
2019-01-05T03:17:10.179Z,8.43
2019-01-05T03:20:58.139Z,9.30
2019-01-05T03:24:37.049Z,9.68
2019-01-05T03:28:17.364Z,10.05
2019-01-05T03:31:57.347Z,10.70
2019-01-05T03:35:21.791Z,7.80
2019-01-05T03:38:33.333Z,8.10
2019-01-05T03:42:02.033Z,9.45
2019-01-05T03:45:39.515Z,9.28
2019-01-05T03:49:08.376Z,10.08
2019-01-05T03:52:32.258Z,10.58
2019-01-05T03:56:03.641Z,10.03
2019-01-05T03:59:27.524Z,10.13
2019-01-05T04:02:56.138Z,9.65
2019-01-05T04:06:15.275Z,10.23
2019-01-05T04:10:12.799Z,9.25
2019-01-05T04:13:46.244Z,10.90
2019-01-05T04:17:17.599Z,9.58
2019-01-05T04:20:48.740Z,9.68
2019-01-05T04:24:10.471Z,9.75
2019-01-05T04:27:37.465Z,9.88
2019-01-05T04:30:54.263Z,8.70
2019-01-05T04:34:27.677Z,9.10
2019-01-05T04:37:53.492Z,9.13
2019-01-05T04:41:28.188Z,7.92
2019-01-05T04:45:06.675Z,8.60
2019-01-05T04:48:25.099Z,6.50
2019-01-05T04:52:06.655Z,7.72
2019-01-05T04:55:57.555Z,8.70
2019-01-05T04:59:33.377Z,6.50
2019-01-05T05:02:59.055Z,6.70
2019-01-05T05:06:35.522Z,6.37
2019-01-05T05:09:47.713Z,5.87
2019-01-05T05:13:15.147Z,4.55
2019-01-05T05:16:38.744Z,4.22
2019-01-05T05:19:58.884Z,4.45
2019-01-05T05:24:01.835Z,3.75
2019-01-05T05:27:57.753Z,3.52
2019-01-05T05:31:23.474Z,2.90
2019-01-05T05:35:00.873Z,2.35
2019-01-05T05:38:39.434Z,3.12
2019-01-05T05:42:26.416Z,2.50
2019-01-05T05:46:09.386Z,2.47
2019-01-05T05:49:44.531Z,2.35
2019-01-05T05:53:04.052Z,1.95
2019-01-05T05:56:40.318Z,1.95
2019-01-05T06:00:34.099Z,2.20
2019-01-05T06:04:16.687Z,2.87
2019-01-05T06:07:40.188Z,2.72
2019-01-05T06:11:23.619Z,2.37
2019-01-05T06:14:39.100Z,2.65
2019-01-05T06:18:22.843Z,2.50
2019-01-05T06:21:46.615Z,2.58
2019-01-05T06:25:04.807Z,3.02
2019-01-05T06:28:47.890Z,1.90
2019-01-05T06:32:09.682Z,2.22
2019-01-05T06:35:17.282Z,2.40
2019-01-05T06:38:47.723Z,2.40
2019-01-05T06:42:19.148Z,1.98
2019-01-05T06:45:51.376Z,1.87
2019-01-05T06:49:47.356Z,1.80
2019-01-05T06:53:29.917Z,1.40
2019-01-05T06:56:53.183Z,1.60
2019-01-05T07:00:19.625Z,1.92
2019-01-05T07:03:47.387Z,1.70
2019-01-05T07:07:21.411Z,1.90
2019-01-05T07:10:44.231Z,1.00
2019-01-05T07:14:31.686Z,1.75
2019-01-05T07:18:20.881Z,1.80
2019-01-05T07:21:46.785Z,1.55
2019-01-05T07:25:29.553Z,1.70
2019-01-05T07:28:43.143Z,1.50
2019-01-05T07:32:19.745Z,1.45
2019-01-05T07:35:47.230Z,1.95
2019-01-05T07:39:33.998Z,2.10
2019-01-05T07:43:05.657Z,2.08
2019-01-05T07:46:27.443Z,1.98
2019-01-05T07:49:49.803Z,2.05
2019-01-05T07:53:12.907Z,1.90
2019-01-05T07:56:50.070Z,1.98
2019-01-05T08:00:12.905Z,2.65
2019-01-05T08:03:51.270Z,2.10
2019-01-05T08:07:24.674Z,2.30
2019-01-05T08:10:50.092Z,1.87
2019-01-05T08:14:35.041Z,2.12
2019-01-05T08:18:21.966Z,2.77
2019-01-05T08:22:20.152Z,3.40
2019-01-05T08:26:10.116Z,2.72
2019-01-05T08:29:56.048Z,3.08
2019-01-05T08:33:38.556Z,2.72
2019-01-05T08:36:54.615Z,3.15
2019-01-05T08:40:18.730Z,3.55
2019-01-05T08:43:54.322Z,2.45
2019-01-05T08:47:18.539Z,3.22
2019-01-05T08:50:46.721Z,2.83
2019-01-05T08:53:58.612Z,3.12
2019-01-05T08:57:55.961Z,3.55
2019-01-05T09:01:34.381Z,2.95
2019-01-05T09:05:13.726Z,2.67
2019-01-05T09:08:35.151Z,3.47
2019-01-05T09:11:59.072Z,2.45
2019-01-05T09:15:27.546Z,2.60
2019-01-05T09:19:17.225Z,2.80
2019-01-05T09:22:50.598Z,2.55
2019-01-05T09:26:08.227Z,2.90
2019-01-05T09:29:46.546Z,3.12
2019-01-05T09:33:37.437Z,3.15
2019-01-05T09:37:12.776Z,2.27
2019-01-05T09:40:49.380Z,2.62
2019-01-05T09:44:27.010Z,2.85
2019-01-05T09:48:18.056Z,2.70
2019-01-05T09:51:51.059Z,3.00
2019-01-05T09:55:40.672Z,2.55
2019-01-05T09:58:52.072Z,3.12
2019-01-05T10:02:27.546Z,2.27
2019-01-05T10:06:06.782Z,2.77
2019-01-05T10:09:40.017Z,2.35
2019-01-05T10:13:06.414Z,3.10
2019-01-05T10:16:29.943Z,3.08
2019-01-05T10:20:02.697Z,3.27
2019-01-05T10:23:46.799Z,3.52
2019-01-05T10:27:14.104Z,3.22
2019-01-05T10:30:50.868Z,2.60
2019-01-05T10:34:20.223Z,2.75
2019-01-05T10:37:44.309Z,4.47
2019-01-05T10:41:19.740Z,3.58
2019-01-05T10:45:01.343Z,3.20
2019-01-05T10:48:54.716Z,3.20
2019-01-05T10:52:19.000Z,3.10
2019-01-05T10:55:47.692Z,2.40
2019-01-05T10:59:29.286Z,2.40
2019-01-05T11:03:00.580Z,3.58
2019-01-05T11:06:23.215Z,2.70
2019-01-05T11:09:48.828Z,2.00
2019-01-05T11:13:06.940Z,2.70
2019-01-05T11:16:22.853Z,2.35
2019-01-05T11:19:52.146Z,2.50
2019-01-05T11:23:15.931Z,2.65
2019-01-05T11:26:50.211Z,2.37
2019-01-05T11:30:14.597Z,2.02
2019-01-05T11:33:32.753Z,2.10
2019-01-05T11:37:18.782Z,2.15
2019-01-05T11:40:56.278Z,2.92
2019-01-05T11:44:43.888Z,2.25
2019-01-05T11:48:19.248Z,1.77
2019-01-05T11:51:44.594Z,2.00
2019-01-05T11:55:28.018Z,2.12
2019-01-05T11:58:51.979Z,2.30
2019-01-05T12:02:19.716Z,2.12
2019-01-05T12:05:42.387Z,2.50
2019-01-05T12:09:16.491Z,1.87
2019-01-05T12:12:59.452Z,1.90
2019-01-05T12:16:21.823Z,1.80
2019-01-05T12:20:00.607Z,2.42
2019-01-05T12:23:23.279Z,2.35
2019-01-05T12:26:54.599Z,1.80
2019-01-05T12:30:41.148Z,1.62
2019-01-05T12:34:28.139Z,2.15
2019-01-05T12:37:42.317Z,2.40
2019-01-05T12:41:23.173Z,2.45
2019-01-05T12:45:04.338Z,2.33
2019-01-05T12:48:44.191Z,2.27
2019-01-05T12:52:07.573Z,1.82
2019-01-05T12:55:31.160Z,2.25
2019-01-05T12:58:54.405Z,1.90
2019-01-05T13:02:45.504Z,2.52
2019-01-05T13:06:23.927Z,2.10
2019-01-05T13:09:40.903Z,1.60
2019-01-05T13:13:08.867Z,2.95
2019-01-05T13:17:24.110Z,2.22
2019-01-05T13:21:13.086Z,2.37
2019-01-05T13:24:36.052Z,2.55
2019-01-05T13:28:02.861Z,1.65
2019-01-05T13:31:30.118Z,2.22
2019-01-05T13:35:01.248Z,1.70
2019-01-05T13:38:47.932Z,1.40
2019-01-05T13:42:15.130Z,1.90
2019-01-05T13:49:32.398Z,2.25
2019-01-05T13:52:47.763Z,2.20
2019-01-05T13:55:59.345Z,1.87
2019-01-05T13:58:52.815Z,1.60
2019-01-05T14:01:44.441Z,1.90
2019-01-05T14:04:39.041Z,2.20
2019-01-05T14:07:26.653Z,1.90
2019-01-05T14:10:14.399Z,1.60
2019-01-05T14:13:01.783Z,3.27
2019-01-05T14:15:59.277Z,1.85
2019-01-05T14:19:00.069Z,1.65
2019-01-05T14:21:47.445Z,1.47
2019-01-05T14:24:51.462Z,2.08
2019-01-05T14:27:38.653Z,1.80
2019-01-05T14:30:40.426Z,1.80
2019-01-05T14:33:27.864Z,2.22
2019-01-05T14:36:16.958Z,2.30
2019-01-05T14:39:04.321Z,1.35
2019-01-05T14:41:51.573Z,2.00
2019-01-05T14:44:39.372Z,2.42
2019-01-05T14:47:46.152Z,1.72
2019-01-05T14:50:33.574Z,1.90
2019-01-05T14:53:22.361Z,1.70
2019-01-05T14:56:11.504Z,2.10
2019-01-05T14:58:59.641Z,1.82
2019-01-05T15:01:47.057Z,2.02
2019-01-05T15:04:34.599Z,2.05
2019-01-05T15:07:22.113Z,2.05
2019-01-05T15:10:29.011Z,2.08
2019-01-05T15:13:29.800Z,2.58
2019-01-05T15:16:33.397Z,2.12
2019-01-05T15:19:20.921Z,2.22
2019-01-05T15:22:08.158Z,2.70
2019-01-05T15:24:55.603Z,2.77
2019-01-05T15:27:50.391Z,2.00
2019-01-05T15:30:39.250Z,2.52
2019-01-05T15:33:34.153Z,3.00
2019-01-05T15:36:35.089Z,2.58
2019-01-05T15:39:40.941Z,2.35
2019-01-05T15:42:28.671Z,2.50
2019-01-05T15:45:20.295Z,2.37
2019-01-05T15:48:08.842Z,2.50
2019-01-05T15:51:00.566Z,2.02
2019-01-05T15:53:47.887Z,2.40
2019-01-05T15:56:35.125Z,2.40
2019-01-05T15:59:38.309Z,2.50
2019-01-05T16:02:24.608Z,2.87
2019-01-05T16:05:13.558Z,2.50
2019-01-05T16:08:09.789Z,3.17
2019-01-05T16:10:58.416Z,4.15
2019-01-05T16:13:51.333Z,3.10
2019-01-05T16:16:58.578Z,3.20
2019-01-05T16:19:46.352Z,2.77
2019-01-05T16:22:34.170Z,2.90
2019-01-05T16:25:28.838Z,3.00
2019-01-05T16:28:15.691Z,2.77
2019-01-05T16:31:22.830Z,2.95
2019-01-05T16:34:23.257Z,4.90
2019-01-05T16:37:11.824Z,2.40
2019-01-05T16:39:59.192Z,2.33
2019-01-05T16:43:03.450Z,2.55
2019-01-05T16:45:57.219Z,3.25
2019-01-05T16:48:48.688Z,2.52
2019-01-05T16:51:39.993Z,2.45
2019-01-05T16:54:24.090Z,2.70
2019-01-05T16:57:28.109Z,2.00
2019-01-05T17:00:16.762Z,2.70
2019-01-05T17:03:17.492Z,2.40
2019-01-05T17:06:05.329Z,2.35
2019-01-05T17:08:56.849Z,2.10
2019-01-05T17:11:44.173Z,3.10
2019-01-05T17:14:31.799Z,3.20
2019-01-05T17:17:26.246Z,2.58
2019-01-05T17:20:07.265Z,2.55
2019-01-05T17:22:55.306Z,2.30
2019-01-05T17:25:46.950Z,2.37
2019-01-05T17:28:35.785Z,2.55
2019-01-05T17:31:25.237Z,2.30
2019-01-05T17:34:22.825Z,2.72
2019-01-05T17:37:17.511Z,2.65
2019-01-05T17:40:05.034Z,2.37
2019-01-05T17:42:52.868Z,2.35
2019-01-05T17:45:37.929Z,2.65
2019-01-05T17:48:26.894Z,2.60
2019-01-05T17:51:14.255Z,2.55
2019-01-05T17:54:02.914Z,2.60
2019-01-05T17:56:54.407Z,2.35
2019-01-05T18:00:04.448Z,2.33
2019-01-05T18:02:52.189Z,2.17
2019-01-05T18:05:55.999Z,3.05
2019-01-05T18:08:53.629Z,3.27
2019-01-05T18:11:53.489Z,3.02
2019-01-05T18:14:43.154Z,2.33
2019-01-05T18:17:44.270Z,4.42
2019-01-05T18:20:39.374Z,3.10
2019-01-05T18:23:28.345Z,2.87
2019-01-05T18:26:32.165Z,3.08
2019-01-05T18:29:27.146Z,2.87
2019-01-05T18:32:14.309Z,2.92
2019-01-05T18:35:15.299Z,3.65
2019-01-05T18:38:02.928Z,3.10
2019-01-05T18:40:51.387Z,3.15
2019-01-05T18:43:49.453Z,3.30
2019-01-05T18:46:40.673Z,3.02
2019-01-05T18:49:28.118Z,2.90
2019-01-05T18:52:15.438Z,3.10
2019-01-05T18:55:02.750Z,3.05
2019-01-05T18:57:50.458Z,3.15
2019-01-05T19:00:54.473Z,2.58
2019-01-05T19:03:45.714Z,3.40
2019-01-05T19:06:33.333Z,3.65
2019-01-05T19:09:20.254Z,3.85
2019-01-05T19:12:11.944Z,3.05
2019-01-05T19:14:59.784Z,3.40
2019-01-05T19:17:58.860Z,3.90
2019-01-05T19:20:46.094Z,3.60
2019-01-05T19:23:34.593Z,3.92
2019-01-05T19:26:22.072Z,3.70
2019-01-05T19:29:10.638Z,3.05
2019-01-05T19:32:02.347Z,3.67
2019-01-05T19:34:56.184Z,4.25
2019-01-05T19:37:43.637Z,3.95
2019-01-05T19:40:35.878Z,4.10
2019-01-05T19:43:26.372Z,4.08
2019-01-05T19:46:33.586Z,4.05
2019-01-05T19:49:31.422Z,4.55
2019-01-05T19:52:18.732Z,3.62
2019-01-05T19:55:06.167Z,3.72
2019-01-05T19:58:09.361Z,3.80
2019-01-05T20:01:16.524Z,3.80
2019-01-05T20:04:03.787Z,4.25
2019-01-05T20:06:55.388Z,3.25
2019-01-05T20:09:49.676Z,3.22
2019-01-05T20:12:38.323Z,3.05
2019-01-05T20:15:27.186Z,2.30
2019-01-05T20:18:15.020Z,2.77
2019-01-05T20:20:59.877Z,2.50
2019-01-05T20:23:47.508Z,2.50
2019-01-05T20:26:28.456Z,2.50
2019-01-05T20:29:29.221Z,2.50
2019-01-05T20:32:25.698Z,2.17
2019-01-05T20:35:12.663Z,1.70
2019-01-05T20:37:52.577Z,1.90
2019-01-05T20:40:39.333Z,1.72
2019-01-05T20:43:37.517Z,1.55
2019-01-05T20:46:39.259Z,1.70
2019-01-05T20:49:30.739Z,1.70
2019-01-05T20:52:31.101Z,1.75
2019-01-05T20:55:25.951Z,1.55
2019-01-05T20:58:24.593Z,1.75
2019-01-05T21:01:10.188Z,1.60
2019-01-05T21:03:58.753Z,1.80
2019-01-05T21:06:50.341Z,1.80
2019-01-05T21:09:37.753Z,1.47
2019-01-05T21:12:33.073Z,2.10
2019-01-05T21:15:21.817Z,1.67
2019-01-05T21:18:19.646Z,1.67
2019-01-05T21:21:20.488Z,2.00
2019-01-05T21:24:08.587Z,1.98
2019-01-05T21:27:09.307Z,2.00
2019-01-05T21:30:04.110Z,2.20
2019-01-05T21:33:00.422Z,1.92
2019-01-05T21:35:47.746Z,2.20
2019-01-05T21:38:34.965Z,1.98
2019-01-05T21:41:22.489Z,2.42
2019-01-05T21:44:24.670Z,1.87
2019-01-05T21:47:25.348Z,1.92
2019-01-05T21:50:17.019Z,2.02
2019-01-05T21:53:14.887Z,2.35
2019-01-05T21:56:06.835Z,2.83
2019-01-05T21:59:07.573Z,2.40
2019-01-05T22:01:56.607Z,2.90
2019-01-05T22:04:43.998Z,3.25
2019-01-05T22:07:35.039Z,2.72
2019-01-05T22:10:22.666Z,2.50
2019-01-05T22:13:15.314Z,3.00
2019-01-05T22:16:10.113Z,3.15
2019-01-05T22:18:57.658Z,2.95
2019-01-05T22:21:55.837Z,2.50
2019-01-05T22:24:43.025Z,2.70
2019-01-05T22:27:37.814Z,2.67
2019-01-05T22:30:26.987Z,2.87
2019-01-05T22:33:14.002Z,3.42
2019-01-05T22:36:01.526Z,2.67
2019-01-05T22:38:53.048Z,3.33
2019-01-05T22:41:40.470Z,3.30
2019-01-05T22:44:41.270Z,3.67
2019-01-05T22:47:33.058Z,3.62
2019-01-05T22:50:20.871Z,3.02
2019-01-05T22:53:08.395Z,3.80
2019-01-05T22:56:15.269Z,2.65
2019-01-05T22:59:03.547Z,3.30
2019-01-05T23:02:01.810Z,3.37
2019-01-05T23:04:56.484Z,3.12
2019-01-05T23:07:44.023Z,3.05
2019-01-05T23:10:34.615Z,3.27
2019-01-05T23:13:26.173Z,3.50
2019-01-05T23:16:13.348Z,3.45
2019-01-05T23:19:00.871Z,3.10
2019-01-05T23:21:46.983Z,2.77
2019-01-05T23:24:35.475Z,2.58
2019-01-05T23:27:36.183Z,4.00
2019-01-05T23:30:25.515Z,3.00
2019-01-05T23:33:14.069Z,3.47
2019-01-05T23:36:08.585Z,3.27
2019-01-05T23:38:55.875Z,3.62
2019-01-05T23:41:53.435Z,3.30
2019-01-05T23:44:40.859Z,3.52
2019-01-05T23:47:29.613Z,3.30
2019-01-05T23:50:18.004Z,3.50
2019-01-05T23:53:15.519Z,3.08
2019-01-05T23:56:22.396Z,4.22
2019-01-05T23:59:26.374Z,4.60
